• Join FlightAware (Why Join?)
  • Login
  • US Flag 
02:42AM EDT


 

Airport Tracker/Info


-or-


 

Live Flight TrackerFlight Track Log ✈ CTL22 ✈ 24-May-2013 ✈ KAZO - KBKL

Flight Track Log - Related Links

Times and Time Zones

All times are in EDT time to prevent confusion due to time zone crossing. See the CTL22 flight status page for this flight to view local times or setup timezone preferences in your user account.

Time Position Orientation Groundspeed Altitude Reporting Facility
EDT Latitude Longitude Course Direction KTS MPH feet Rate Location/Type
08:22PM 42.2081 -85.4125 115° Southeast 137 158 4,400  Level Chicago Center
08:23PM 42.1919 -85.3656 115° Southeast 139 160 5,200 720 Climbing Chicago Center
08:24PM 42.1719 -85.3164 119° Southeast 146 168 5,900 660 Climbing Chicago Center
08:25PM 42.1722 -85.1823 103° East  Level Estimated
08:25PM 42.1522 -85.2658 118° Southeast 150 173 6,600  Level Chicago Center
08:26PM 42.1617 -85.1208 103° East  Level Estimated
08:26PM 42.1333 -85.2131 116° Southeast 154 177 7,000  Level Chicago Center
08:27PM 42.1100 -85.1561 119° Southeast 169 194 7,000  Level Chicago Center
08:28PM 42.0906 -85.0925 112° Southeast 180 207 7,000  Level Chicago Center
08:29PM 42.0619 -85.0181 117° Southeast 185 213 7,000  Level Chicago Center
08:30PM 42.0378 -84.9581 118° Southeast 184 212 7,000  Level Chicago Center
08:31PM 42.0136 -84.8978 118° Southeast 183 211 7,000  Level Chicago Center
08:32PM 41.9953 -84.8350 111° Southeast 181 208 7,100  Climbing Chicago Center
08:33PM 41.9769 -84.7725 112° Southeast 180 207 7,100  Level Chicago Center
08:34PM 41.9583 -84.7100 112° Southeast 180 207 7,100  Level Chicago Center
08:35PM 41.9358 -84.6347 112° Southeast 180 207 7,100  Level Chicago Center
08:36PM 41.9161 -84.5725 113° Southeast 180 207 7,100  Level Chicago Center
08:37PM 41.9042 -84.5075 104° East 180 207 7,100 -60 Level Chicago Center
08:38PM 41.8844 -84.4475 114° Southeast 176 203 7,000  Descending Chicago Center
08:39PM 41.8578 -84.3886 121° Southeast 178 205 7,100  Climbing Chicago Center
08:40PM 41.8344 -84.3278 117° Southeast 182 209 7,100  Level Chicago Center
08:41PM 41.8119 -84.2669 116° Southeast 182 209 7,100  Level Chicago Center
08:43PM 41.7850 -84.1947 117° Southeast 182 209 7,100  Level Chicago Center
08:44PM 41.7619 -84.1358 118° Southeast 181 208 7,100  Level Chicago Center
09:01PM 41.6178 -82.9858 99° East 180 207 7,100  Level Cleveland Center
09:02PM 41.6142 -82.9606 101° East 179 206 7,100  Level Cleveland Center
09:03PM 41.6092 -82.9075 97° East 177 204 7,100 -60 Level Cleveland Center
09:04PM 41.6064 -82.8353 93° East 177 204 7,000  Descending Cleveland Center
09:05PM 41.5950 -82.7683 103° East 179 206 7,100  Climbing Cleveland Center
09:06PM 41.5881 -82.7042 98° East 179 206 7,100 -60 Level Cleveland Center
09:07PM 41.5894 -82.6319 89° East 173 199 7,000 -60 Descending Cleveland Center
09:08PM 41.5844 -82.5597 95° East 175 201 7,000 -360 Level Cleveland Center
09:09PM 41.5792 -82.4956 96° East 195 224 6,300 -1,140 Descending Cleveland Center
09:10PM 41.5742 -82.4206 95° East 202 232 4,900 -1,200 Descending Cleveland Center
09:11PM 41.5692 -82.3483 95° East 199 229 4,000 -480 Descending Cleveland Center
09:12PM 41.5658 -82.2789 94° East 178 205 4,000 -300 Level Cleveland Center
09:13PM 41.5606 -82.2150 96° East 175 201 3,500 -660 Descending Cleveland Center
09:14PM 41.5556 -82.1314 95° East 198 228 2,600 -480 Descending Cleveland Center
09:15PM 41.5500 -82.0647 96° East 178 205 2,500 -60 Descending Cleveland Center
09:16PM 41.5447 -82.0036 97° East 169 194 2,500 -300 Level Cleveland Center
09:17PM 41.5392 -81.9453 97° East 180 207 2,000 -420 Descending Cleveland Center
09:18PM 41.5294 -81.8783 101° East 178 205 1,800 -120 Descending Cleveland Center
09:19PM 41.5217 -81.8172 100° East 162 186 1,800 -300 Level Cleveland Center
09:20PM 41.5100 -81.7394 101° East 149 171 1,200 -480 Descending Cleveland Center
09:21PM 41.5103 -81.7117 89° East 99 114 900 -480 Descending Cleveland Center
09:23PM 41.5175 -81.6833 90° East  Level Estimated
09:30PM 41.5175 -81.6833 90° East  Level Estimated